Time;durP1;ratioP1;P1;durP2;ratioP2;P2;SDS_P1;SDS_P2;PMS_P1;PMS_P2;Temp;Humidity;BMP_temperature;BMP_pressure;BME280_temperature;BME280_humidity;BME280_pressure;Samples;Min_cycle;Max_cycle;Signal;HPM_P1;HPM_P2
2022/11/22 00:00:36;;;;;;;0.00;0.00;;;;;;;7.36;100.00;96671.66;4986302;28;20268;-53
2022/11/22 00:03:03;;;;;;;0.10;0.10;;;;;;;7.35;99.45;96664.06;4982514;28;20629;-54
2022/11/22 00:05:31;;;;;;;0.00;0.00;;;;;;;7.37;99.64;96675.09;4986310;28;20229;-53
2022/11/22 00:07:57;;;;;;;0.00;0.00;;;;;;;7.32;99.94;96678.19;4982594;28;20226;-55
2022/11/22 00:10:24;;;;;;;0.00;0.00;;;;;;;7.33;98.82;96673.84;4984455;28;20225;-55
2022/11/22 00:12:51;;;;;;;0.00;0.00;;;;;;;7.33;100.00;96690.19;4984366;28;20237;-54
2022/11/22 00:15:18;;;;;;;0.00;0.00;;;;;;;7.35;100.00;96696.00;4987160;28;20241;-55
2022/11/22 00:17:44;;;;;;;0.00;0.00;;;;;;;7.34;99.59;96678.84;4984690;28;20233;-55
2022/11/22 00:20:12;;;;;;;0.00;0.00;;;;;;;7.36;97.38;96684.66;4985217;28;20236;-53
2022/11/22 00:22:40;;;;;;;0.00;0.00;;;;;;;7.43;96.65;96681.34;4999560;28;20699;-54
2022/11/22 00:25:08;;;;;;;0.00;0.00;;;;;;;7.43;98.81;96684.72;4981962;28;20352;-55
2022/11/22 00:27:34;;;;;;;0.10;0.10;;;;;;;7.46;97.70;96681.78;4986210;28;20307;-54
2022/11/22 00:30:01;;;;;;;0.00;0.00;;;;;;;7.45;97.19;96695.75;4982323;28;20234;-54
2022/11/22 00:32:27;;;;;;;0.00;0.00;;;;;;;7.52;95.61;96690.66;4984812;28;20234;-53
2022/11/22 00:34:54;;;;;;;0.00;0.00;;;;;;;7.53;96.38;96684.47;4982064;28;20242;-54
2022/11/22 00:37:20;;;;;;;0.00;0.00;;;;;;;7.51;97.57;96705.41;4984081;28;20711;-55
2022/11/22 00:39:48;;;;;;;0.00;0.00;;;;;;;7.50;98.29;96705.59;4982520;28;20805;-55
2022/11/22 00:42:18;;;;;;;0.00;0.00;;;;;;;7.49;98.15;96702.19;4984585;28;20624;-54
2022/11/22 00:44:44;;;;;;;0.00;0.00;;;;;;;7.49;98.21;96709.97;4980973;28;20238;-54
2022/11/22 00:47:11;;;;;;;0.00;0.00;;;;;;;7.48;99.49;96721.34;4984945;28;20252;-53
2022/11/22 00:49:39;;;;;;;0.00;0.00;;;;;;;7.47;99.31;96717.13;4985860;28;20277;-55
2022/11/22 00:52:08;;;;;;;0.10;0.10;;;;;;;7.49;99.86;96722.16;4983921;28;20238;-56
2022/11/22 00:54:35;;;;;;;0.00;0.00;;;;;;;7.51;96.96;96721.00;4985710;28;20236;-53
2022/11/22 00:57:03;;;;;;;0.00;0.00;;;;;;;7.51;98.37;96726.19;4983126;28;20219;-54
2022/11/22 00:59:29;;;;;;;0.00;0.00;;;;;;;7.48;99.09;96734.31;4987600;28;20221;-56
2022/11/22 01:01:56;;;;;;;0.00;0.00;;;;;;;7.48;99.07;96741.31;4982647;28;20271;-55
2022/11/22 01:04:22;;;;;;;0.00;0.00;;;;;;;7.45;99.24;96733.88;4984081;28;20249;-56
2022/11/22 01:06:49;;;;;;;0.00;0.00;;;;;;;7.39;99.81;96731.00;4981620;28;20276;-56
2022/11/22 01:09:19;;;;;;;0.00;0.00;;;;;;;7.42;99.11;96742.81;4984981;28;20279;-54
2022/11/22 01:11:45;;;;;;;0.03;0.03;;;;;;;7.42;98.36;96745.41;4997203;28;20229;-56
2022/11/22 01:14:13;;;;;;;0.10;0.10;;;;;;;7.42;99.30;96757.59;4984937;28;20229;-56
2022/11/22 01:16:40;;;;;;;0.00;0.00;;;;;;;7.41;97.53;96751.63;4985183;28;20220;-55
2022/11/22 01:19:10;;;;;;;0.03;0.03;;;;;;;7.44;98.53;96759.03;4980479;28;20229;-55
2022/11/22 01:21:36;;;;;;;0.00;0.00;;;;;;;7.44;98.13;96761.63;4981528;28;20245;-53
2022/11/22 01:24:03;;;;;;;0.00;0.00;;;;;;;7.43;97.46;96757.41;4980707;28;20405;-54
2022/11/22 01:26:30;;;;;;;0.00;0.00;;;;;;;7.48;96.54;96755.09;4983668;28;20260;-53
2022/11/22 01:28:56;;;;;;;0.00;0.00;;;;;;;7.44;97.66;96761.63;4982048;28;20225;-54
2022/11/22 01:31:24;;;;;;;0.00;0.00;;;;;;;7.41;97.86;96759.41;4983923;28;20955;-53
2022/11/22 01:33:51;;;;;;;0.00;0.00;;;;;;;7.44;97.27;96772.00;4981046;28;20771;-53
2022/11/22 01:36:17;;;;;;;0.00;0.00;;;;;;;7.45;97.10;96771.03;4984644;28;20276;-54
2022/11/22 01:38:44;;;;;;;0.00;0.00;;;;;;;7.45;97.86;96773.63;4983175;28;20276;-53
2022/11/22 01:41:10;;;;;;;0.10;0.10;;;;;;;7.43;98.11;96783.38;4983880;28;20299;-53
2022/11/22 01:43:37;;;;;;;0.00;0.00;;;;;;;7.43;97.75;96787.78;4984688;28;20217;-54
2022/11/22 01:46:08;;;;;;;0.00;0.00;;;;;;;7.47;94.99;96783.84;4981871;28;20245;-53
2022/11/22 01:48:45;;;;;;;0.00;0.00;;;;;;;7.46;96.77;96796.00;4984044;28;20234;-55
2022/11/22 01:51:18;;;;;;;0.00;0.00;;;;;;;7.51;94.31;96787.69;4982221;28;20252;-55
2022/11/22 01:53:45;;;;;;;0.00;0.00;;;;;;;7.53;93.75;96785.72;4980862;28;20228;-55
2022/11/22 01:56:15;;;;;;;0.00;0.00;;;;;;;7.51;93.31;96788.50;4984601;28;20229;-53
2022/11/22 01:58:44;;;;;;;0.00;0.00;;;;;;;7.50;94.26;96793.88;4985126;28;20322;-54
2022/11/22 02:01:11;;;;;;;0.00;0.00;;;;;;;7.49;95.22;96807.84;4982858;28;20279;-55
2022/11/22 02:03:42;;;;;;;0.00;0.00;;;;;;;7.46;95.02;96796.00;4983194;28;20229;-53
2022/11/22 02:06:09;;;;;;;0.00;0.00;;;;;;;7.45;95.96;96798.78;4983549;28;20686;-55
2022/11/22 02:08:40;;;;;;;0.00;0.00;;;;;;;7.43;97.03;96805.94;4984855;28;20268;-54
2022/11/22 02:11:12;;;;;;;0.00;0.00;;;;;;;7.50;95.02;96802.44;4982125;28;20765;-53
2022/11/22 02:13:42;;;;;;;0.00;0.00;;;;;;;7.41;95.68;96805.31;4999249;28;20225;-53
2022/11/22 02:16:11;;;;;;;0.00;0.00;;;;;;;7.42;94.57;96799.13;4981882;28;20233;-55
2022/11/22 02:18:39;;;;;;;0.00;0.00;;;;;;;7.47;95.38;96810.59;4987804;28;20640;-53
2022/11/22 02:21:09;;;;;;;0.00;0.00;;;;;;;7.49;93.79;96807.84;4985830;28;20229;-53
2022/11/22 02:23:45;;;;;;;0.00;0.00;;;;;;;7.42;95.81;96809.53;4987921;28;20773;-54
2022/11/22 02:26:14;;;;;;;0.00;0.00;;;;;;;7.40;96.00;96812.31;4986292;28;20229;-54
2022/11/22 02:28:41;;;;;;;0.00;0.00;;;;;;;7.36;95.90;96809.22;4987569;28;20233;-54
2022/11/22 02:31:08;;;;;;;0.07;0.07;;;;;;;7.34;94.98;96813.78;4985189;28;20241;-53
2022/11/22 02:33:34;;;;;;;0.00;0.00;;;;;;;7.34;95.12;96823.38;4988229;28;20288;-55
2022/11/22 02:36:01;;;;;;;0.10;0.10;;;;;;;7.29;96.40;96834.28;4985328;28;20256;-53
2022/11/22 02:38:32;;;;;;;0.10;0.10;;;;;;;7.31;95.46;96826.31;4987113;28;20229;-53
2022/11/22 02:41:02;;;;;;;0.00;0.00;;;;;;;7.26;94.94;96836.44;4985123;28;20705;-54
2022/11/22 02:43:34;;;;;;;0.00;0.00;;;;;;;7.22;95.24;96836.78;4987997;28;20636;-53
2022/11/22 02:46:05;;;;;;;0.00;0.00;;;;;;;7.20;95.67;96830.13;4985437;28;20701;-53
2022/11/22 02:48:31;;;;;;;0.00;0.00;;;;;;;7.19;94.34;96838.88;4987848;28;20237;-55
2022/11/22 02:50:58;;;;;;;0.00;0.00;;;;;;;7.12;94.80;96840.56;4984869;28;20241;-55
2022/11/22 02:53:25;;;;;;;0.00;0.00;;;;;;;7.05;94.50;96832.66;4988001;28;20225;-53
2022/11/22 02:55:51;;;;;;;0.00;0.00;;;;;;;6.95;94.34;96832.88;4985411;28;20276;-53
2022/11/22 02:58:18;;;;;;;0.00;0.00;;;;;;;6.85;95.18;96843.50;4987387;28;20233;-53
2022/11/22 03:00:46;;;;;;;0.00;0.00;;;;;;;6.91;93.37;96852.34;4985685;28;20229;-55
2022/11/22 03:03:12;;;;;;;0.10;0.10;;;;;;;6.97;91.50;96841.28;4985896;28;20689;-54
2022/11/22 03:05:39;;;;;;;0.00;0.00;;;;;;;6.90;93.51;96843.78;4987634;28;20290;-53
2022/11/22 03:08:05;;;;;;;0.00;0.00;;;;;;;7.04;91.11;96854.41;4984846;28;20249;-53
2022/11/22 03:10:32;;;;;;;0.03;0.03;;;;;;;7.19;89.03;96844.06;4987942;28;20229;-55
2022/11/22 03:12:59;;;;;;;0.00;0.00;;;;;;;7.21;89.38;96845.53;4984368;28;20284;-53
2022/11/22 03:15:25;;;;;;;0.00;0.00;;;;;;;7.20;90.61;96835.31;4987946;28;20229;-55
2022/11/22 03:17:58;;;;;;;0.10;0.10;;;;;;;7.13;92.57;96849.97;4967766;28;20233;-53
2022/11/22 03:20:24;;;;;;;0.00;0.00;;;;;;;7.13;92.65;96847.38;4968218;28;20241;-54
2022/11/22 03:22:51;;;;;;;0.10;0.10;;;;;;;7.13;91.32;96847.38;4964911;28;20218;-54
2022/11/22 03:25:17;;;;;;;0.00;0.00;;;;;;;7.19;90.42;96844.91;4986087;28;20755;-53
2022/11/22 03:27:44;;;;;;;0.00;0.00;;;;;;;7.20;90.60;96845.69;4986677;28;20260;-55
2022/11/22 03:30:11;;;;;;;0.10;0.10;;;;;;;7.13;92.46;96855.16;4987362;28;20690;-53
2022/11/22 03:32:38;;;;;;;0.00;0.00;;;;;;;7.13;92.22;96848.19;4986957;28;20842;-55
2022/11/22 03:35:07;;;;;;;0.00;0.00;;;;;;;7.11;92.34;96849.31;4984190;28;20303;-54
2022/11/22 03:37:33;;;;;;;0.00;0.00;;;;;;;7.16;91.18;96853.03;4985503;28;20638;-53
2022/11/22 03:40:00;;;;;;;0.10;0.10;;;;;;;7.21;89.07;96850.72;4983678;28;20713;-54
2022/11/22 03:42:27;;;;;;;0.00;0.00;;;;;;;7.22;88.22;96851.53;4987226;28;20704;-55
2022/11/22 03:44:54;;;;;;;0.00;0.00;;;;;;;7.22;88.02;96847.16;4983970;28;20229;-53
2022/11/22 03:47:21;;;;;;;0.03;0.03;;;;;;;7.18;86.89;96855.44;4987295;28;20234;-53
2022/11/22 03:49:48;;;;;;;0.10;0.10;;;;;;;7.18;87.16;96851.06;4983572;28;20304;-54
2022/11/22 03:52:18;;;;;;;0.00;0.00;;;;;;;7.16;88.38;96852.22;4987117;28;20260;-53
2022/11/22 03:54:45;;;;;;;0.07;0.07;;;;;;;7.23;86.24;96846.16;4983827;28;20237;-55
2022/11/22 03:57:11;;;;;;;0.00;0.00;;;;;;;7.17;88.05;96846.88;4986991;28;20233;-53
2022/11/22 03:59:38;;;;;;;0.10;0.10;;;;;;;7.15;91.07;96856.59;4986366;28;20299;-55
2022/11/22 04:02:04;;;;;;;0.00;0.00;;;;;;;7.13;91.92;96861.16;4983954;28;20246;-54
2022/11/22 04:04:31;;;;;;;0.00;0.00;;;;;;;7.08;92.80;96866.06;4986308;28;20331;-55
2022/11/22 04:06:57;;;;;;;0.00;0.00;;;;;;;7.05;93.96;96869.78;4983313;28;20277;-55
2022/11/22 04:09:25;;;;;;;0.00;0.00;;;;;;;7.04;93.82;96881.16;4985497;28;20237;-53
2022/11/22 04:11:52;;;;;;;0.00;0.00;;;;;;;6.91;97.16;96879.13;4983668;28;20254;-55
2022/11/22 04:17:02;;;;;;;0.00;0.00;;;;;;;6.78;99.51;96879.69;4983751;28;20228;-55
2022/11/22 04:19:29;;;;;;;0.00;0.00;;;;;;;6.65;100.00;96900.94;4986107;28;20229;-54
2022/11/22 04:21:55;;;;;;;0.00;0.00;;;;;;;6.62;96.58;96879.75;4983899;28;20232;-55
2022/11/22 04:27:07;;;;;;;0.00;0.00;;;;;;;6.59;92.55;96874.91;4981145;28;20232;-53
2022/11/22 04:29:33;;;;;;;0.10;0.10;;;;;;;6.56;92.40;96872.66;4966319;28;20288;-53
2022/11/22 04:34:56;;;;;;;0.07;0.07;;;;;;;6.33;97.94;96870.78;4942126;28;20242;-60
2022/11/22 04:37:22;;;;;;;0.00;0.00;;;;;;;6.31;93.53;96857.19;4976861;28;20284;-59
2022/11/22 04:39:49;;;;;;;0.00;0.00;;;;;;;6.23;96.57;96862.41;4982794;28;20700;-60
2022/11/22 04:45:00;;;;;;;0.10;0.10;;;;;;;5.89;100.00;96846.91;4964456;28;20229;-60
2022/11/22 04:53:01;;;;;;;0.00;0.00;;;;;;;5.53;100.00;96852.47;4962372;28;20748;-60
2022/11/22 04:55:27;;;;;;;0.10;0.10;;;;;;;5.53;100.00;96841.28;4967126;28;20268;-60
2022/11/22 04:57:55;;;;;;;0.00;0.00;;;;;;;5.44;100.00;96854.22;4963166;28;20296;-59
2022/11/22 05:00:22;;;;;;;0.00;0.00;;;;;;;5.45;100.00;96857.63;4967122;28;20828;-60
2022/11/22 05:02:48;;;;;;;0.10;0.10;;;;;;;5.42;100.00;96855.38;4963830;28;20716;-59
2022/11/22 05:05:15;;;;;;;0.00;0.00;;;;;;;5.36;100.00;96856.03;4966893;28;20241;-60
2022/11/22 05:07:43;;;;;;;0.00;0.00;;;;;;;5.33;100.00;96854.53;4965713;28;20292;-60
2022/11/22 05:10:10;;;;;;;0.00;0.00;;;;;;;5.32;100.00;96864.09;4964261;28;20233;-59
2022/11/22 05:12:37;;;;;;;0.00;0.00;;;;;;;5.35;100.00;96860.38;4967601;28;20236;-60
2022/11/22 05:15:06;;;;;;;0.07;0.07;;;;;;;5.28;100.00;96859.44;4961203;28;20228;-60
2022/11/22 05:17:32;;;;;;;0.10;0.10;;;;;;;5.31;100.00;96861.66;4960963;28;20369;-60
2022/11/22 05:19:59;;;;;;;0.00;0.00;;;;;;;5.36;100.00;96867.16;4965019;28;20287;-60
2022/11/22 05:25:08;;;;;;;0.00;0.00;;;;;;;5.41;100.00;96871.88;4963749;28;20351;-60
2022/11/22 05:27:34;;;;;;;0.03;0.03;;;;;;;5.53;100.00;96869.75;4968294;28;20796;-59
2022/11/22 05:30:01;;;;;;;0.00;0.00;;;;;;;5.46;100.00;96877.38;4963771;28;20666;-60
2022/11/22 05:32:31;;;;;;;0.10;0.10;;;;;;;5.49;100.00;96876.22;4967999;28;20759;-59
2022/11/22 05:34:58;;;;;;;0.10;0.10;;;;;;;5.47;100.00;96882.38;4963459;28;20237;-60
2022/11/22 05:37:25;;;;;;;0.00;0.00;;;;;;;5.54;100.00;96889.50;4966363;28;20234;-59
2022/11/22 05:39:51;;;;;;;0.00;0.00;;;;;;;5.63;100.00;96891.09;4963579;28;20237;-60
2022/11/22 05:42:18;;;;;;;0.10;0.10;;;;;;;5.72;100.00;96897.09;4965945;28;20247;-59
2022/11/22 05:44:45;;;;;;;0.00;0.00;;;;;;;5.85;100.00;96897.41;4964416;28;20280;-60
2022/11/22 05:47:11;;;;;;;0.00;0.00;;;;;;;5.89;100.00;96897.91;4966376;28;20249;-59
2022/11/22 05:49:41;;;;;;;0.00;0.00;;;;;;;5.96;100.00;96898.03;4965977;28;20245;-60
2022/11/22 05:52:07;;;;;;;0.00;0.00;;;;;;;5.98;100.00;96898.69;4965412;28;20238;-59
2022/11/22 05:54:37;;;;;;;0.00;0.00;;;;;;;6.05;100.00;96903.09;4971465;28;20260;-59
2022/11/22 05:57:03;;;;;;;0.00;0.00;;;;;;;6.08;100.00;96907.13;4968363;28;20221;-59
2022/11/22 05:59:30;;;;;;;0.00;0.00;;;;;;;6.12;99.61;96907.59;4969530;28;20733;-59
2022/11/22 06:01:56;;;;;;;0.00;0.00;;;;;;;6.17;97.59;96911.31;4971342;28;20237;-60
2022/11/22 06:04:23;;;;;;;0.00;0.00;;;;;;;6.17;95.98;96919.09;4970503;28;20263;-60
2022/11/22 06:06:53;;;;;;;0.07;0.07;;;;;;;6.17;96.19;96923.47;4967502;28;20292;-60
2022/11/22 06:09:21;;;;;;;0.00;0.00;;;;;;;6.17;95.99;96918.28;4970101;28;20233;-59
2022/11/22 06:11:48;;;;;;;0.00;0.00;;;;;;;6.18;96.81;96928.47;4969113;28;20229;-60
2022/11/22 06:14:14;;;;;;;0.00;0.00;;;;;;;6.21;96.67;96932.53;4970354;28;20319;-60
2022/11/22 06:16:41;;;;;;;0.10;0.10;;;;;;;6.19;96.87;96927.50;4969298;28;20225;-60
2022/11/22 06:19:07;;;;;;;0.00;0.00;;;;;;;6.15;96.17;96933.97;4965673;28;20229;-59
2022/11/22 06:21:34;;;;;;;0.00;0.00;;;;;;;6.17;96.76;96928.66;4971550;28;20237;-59
2022/11/22 06:24:02;;;;;;;0.00;0.00;;;;;;;6.18;95.81;96931.06;4967690;28;20237;-59
2022/11/22 06:26:28;;;;;;;0.07;0.07;;;;;;;6.10;96.37;96940.63;4969678;28;20229;-59
2022/11/22 06:28:55;;;;;;;0.10;0.10;;;;;;;6.09;96.54;96942.41;4967341;28;20237;-59
2022/11/22 06:31:24;;;;;;;0.07;0.07;;;;;;;6.14;91.17;96931.56;4970433;28;20252;-60
2022/11/22 06:33:53;;;;;;;0.10;0.10;;;;;;;6.16;90.25;96933.00;4966914;28;20391;-59
2022/11/22 06:36:22;;;;;;;0.00;0.00;;;;;;;6.02;93.30;96933.66;4970247;28;20237;-60
2022/11/22 06:38:49;;;;;;;0.00;0.00;;;;;;;5.94;95.30;96941.41;4966173;28;20229;-60
2022/11/22 06:41:18;;;;;;;0.07;0.07;;;;;;;5.87;95.56;96949.03;4969754;28;20580;-60
2022/11/22 06:43:46;;;;;;;0.00;0.00;;;;;;;5.77;95.56;96949.22;4970076;28;20233;-59
2022/11/22 06:46:13;;;;;;;0.00;0.00;;;;;;;5.70;96.24;96943.84;4968002;28;20690;-59
2022/11/22 06:48:42;;;;;;;0.00;0.00;;;;;;;5.68;97.76;96943.22;4971150;28;20292;-59
2022/11/22 06:51:10;;;;;;;0.00;0.00;;;;;;;5.65;95.95;96945.31;4967465;28;20234;-60
2022/11/22 06:53:38;;;;;;;0.00;0.00;;;;;;;5.68;94.64;96945.78;4968806;28;20226;-60
2022/11/22 06:56:06;;;;;;;0.00;0.00;;;;;;;5.66;96.29;96968.44;4967023;28;30753;-60
2022/11/22 06:58:35;;;;;;;0.00;0.00;;;;;;;5.62;97.83;96964.56;4969101;28;20698;-59
2022/11/22 07:01:03;;;;;;;0.00;0.00;;;;;;;5.61;100.00;96968.13;4966357;28;20230;-61
2022/11/22 07:03:30;;;;;;;0.10;0.10;;;;;;;5.57;100.00;96964.22;4971597;28;20233;-59
2022/11/22 07:05:56;;;;;;;0.10;0.10;;;;;;;5.58;100.00;96973.59;4963769;28;20292;-59
2022/11/22 07:08:23;;;;;;;0.00;0.00;;;;;;;5.60;100.00;96994.97;4967208;28;20241;-58
2022/11/22 07:10:50;;;;;;;0.10;0.10;;;;;;;5.58;100.00;96995.13;4966573;28;20622;-60
2022/11/22 07:13:17;;;;;;;0.00;0.00;;;;;;;5.65;98.16;97005.66;4969562;28;20300;-58
2022/11/22 07:15:53;;;;;;;0.00;0.00;;;;;;;5.73;98.84;96994.50;4968717;28;20230;-58
2022/11/22 07:18:20;;;;;;;0.10;0.10;;;;;;;5.73;97.87;97003.09;4966533;28;20244;-59
2022/11/22 07:20:46;;;;;;;0.10;0.10;;;;;;;5.80;97.76;96999.84;4966073;28;20245;-59
2022/11/22 07:23:14;;;;;;;0.00;0.00;;;;;;;5.95;95.96;97011.19;4968022;28;20253;-58
2022/11/22 07:25:43;;;;;;;0.00;0.00;;;;;;;6.02;93.00;97004.44;4969631;28;20244;-59
2022/11/22 07:28:10;;;;;;;0.00;0.00;;;;;;;6.06;93.28;97017.84;4968365;28;20308;-59
2022/11/22 07:30:37;;;;;;;0.00;0.00;;;;;;;6.19;92.24;97007.03;4970948;28;20235;-59
2022/11/22 07:33:05;;;;;;;0.00;0.00;;;;;;;6.17;92.53;97014.16;4966912;28;20237;-59
2022/11/22 07:35:31;;;;;;;0.00;0.00;;;;;;;6.25;92.14;97029.69;4968680;28;20241;-60
2022/11/22 07:37:58;;;;;;;0.07;0.07;;;;;;;6.24;93.65;97032.44;4967194;28;20254;-58
2022/11/22 07:40:25;;;;;;;0.00;0.00;;;;;;;6.34;92.51;97035.66;4968882;28;20725;-59
2022/11/22 07:42:51;;;;;;;0.00;0.00;;;;;;;6.36;92.37;97057.03;4965604;28;20245;-59
2022/11/22 07:45:20;;;;;;;0.00;0.00;;;;;;;6.35;91.08;97043.28;4966052;28;20234;-59
2022/11/22 07:47:47;;;;;;;0.00;0.00;;;;;;;6.35;93.51;97053.66;4965255;28;20238;-59
2022/11/22 07:50:15;;;;;;;0.07;0.07;;;;;;;6.36;94.63;97059.63;4969330;28;20247;-59
2022/11/22 07:52:42;;;;;;;0.00;0.00;;;;;;;6.32;97.30;97066.94;4969229;28;20249;-59
2022/11/22 07:55:10;;;;;;;0.00;0.00;;;;;;;6.29;97.54;97069.03;4965410;28;20559;-59
2022/11/22 07:57:37;;;;;;;0.07;0.07;;;;;;;6.28;97.52;97073.41;4968368;28;20237;-59
2022/11/22 08:00:04;;;;;;;0.00;0.00;;;;;;;6.30;97.15;97070.66;4965508;28;20645;-59
2022/11/22 08:02:31;;;;;;;0.00;0.00;;;;;;;6.41;95.30;97069.50;4966556;28;20334;-59
2022/11/22 08:04:59;;;;;;;0.00;0.00;;;;;;;6.43;96.25;97068.38;4964804;28;20240;-59
2022/11/22 08:07:27;;;;;;;0.00;0.00;;;;;;;6.50;95.71;97065.94;4968770;28;20344;-59
2022/11/22 08:09:58;;;;;;;0.00;0.00;;;;;;;6.52;95.91;97065.78;4965173;28;20282;-59
2022/11/22 08:12:25;;;;;;;0.00;0.00;;;;;;;6.49;97.26;97062.53;4968090;28;20288;-59
2022/11/22 08:14:51;;;;;;;0.00;0.00;;;;;;;6.55;97.09;97058.47;4966743;28;20285;-59
2022/11/22 08:17:18;;;;;;;0.00;0.00;;;;;;;6.57;95.79;97066.91;4969984;28;20225;-59
2022/11/22 08:19:45;;;;;;;0.00;0.00;;;;;;;6.63;95.60;97062.84;4967411;28;20245;-59
2022/11/22 08:22:14;;;;;;;0.00;0.00;;;;;;;6.73;94.12;97065.25;4967352;28;20237;-59
2022/11/22 08:24:42;;;;;;;0.00;0.00;;;;;;;6.84;94.14;97070.09;4968301;28;20230;-59
2022/11/22 08:27:08;;;;;;;0.00;0.00;;;;;;;6.87;92.83;97064.59;4964655;28;20709;-59
2022/11/22 08:29:35;;;;;;;0.00;0.00;;;;;;;6.89;93.74;97057.44;4967803;28;20234;-59
2022/11/22 08:32:02;;;;;;;0.00;0.00;;;;;;;6.95;92.63;97061.16;4964063;28;20730;-58
2022/11/22 08:34:28;;;;;;;0.00;0.00;;;;;;;7.02;91.42;97056.13;4966699;28;20285;-59
2022/11/22 08:36:55;;;;;;;0.00;0.00;;;;;;;7.02;91.73;97054.31;4963871;28;20230;-60
2022/11/22 08:39:22;;;;;;;0.00;0.00;;;;;;;7.10;87.94;97058.69;4967126;28;20231;-59
2022/11/22 08:41:50;;;;;;;0.00;0.00;;;;;;;7.14;88.38;97064.34;4964025;28;20245;-59
2022/11/22 08:44:16;;;;;;;0.00;0.00;;;;;;;7.11;87.38;97060.31;4967911;28;20288;-59
2022/11/22 08:46:43;;;;;;;0.07;0.07;;;;;;;7.21;86.20;97062.69;4966976;28;20248;-59
2022/11/22 08:49:10;;;;;;;0.00;0.00;;;;;;;7.30;86.46;97060.91;4965759;28;20239;-59
2022/11/22 08:51:37;;;;;;;0.00;0.00;;;;;;;7.35;84.91;97061.19;4966938;28;20237;-59
2022/11/22 08:54:03;;;;;;;0.00;0.00;;;;;;;7.33;84.35;97052.78;4963880;28;20770;-59
2022/11/22 08:56:30;;;;;;;0.00;0.00;;;;;;;7.46;81.12;97058.22;4966385;28;20731;-60
2022/11/22 08:58:58;;;;;;;0.00;0.00;;;;;;;7.57;81.29;97051.84;4964088;28;20307;-59
2022/11/22 09:01:25;;;;;;;0.00;0.00;;;;;;;7.57;81.45;97059.63;4966154;28;20245;-60
2022/11/22 09:03:51;;;;;;;0.00;0.00;;;;;;;7.63;79.01;97063.31;4961287;28;20289;-61
2022/11/22 09:06:20;;;;;;;0.10;0.10;;;;;;;7.66;78.36;97062.97;4966713;28;20241;-60
2022/11/22 09:08:47;;;;;;;0.00;0.00;;;;;;;7.80;76.14;97072.63;4964162;28;20290;-60
2022/11/22 09:11:16;;;;;;;0.00;0.00;;;;;;;7.82;76.61;97060.28;4967069;28;20288;-60
2022/11/22 09:13:43;;;;;;;0.00;0.00;;;;;;;7.89;76.47;97055.22;4967522;28;20295;-60
2022/11/22 09:16:12;;;;;;;0.00;0.00;;;;;;;7.75;75.27;97064.56;4965196;28;20294;-61
2022/11/22 09:18:39;;;;;;;0.00;0.00;;;;;;;7.83;77.01;97050.72;4966541;28;20231;-60
2022/11/22 09:21:08;;;;;;;0.00;0.00;;;;;;;7.85;77.40;97047.94;4964822;28;20245;-60
2022/11/22 09:23:35;;;;;;;0.00;0.00;;;;;;;7.81;76.53;97047.50;4965067;28;20234;-60
2022/11/22 09:26:03;;;;;;;0.00;0.00;;;;;;;7.86;78.72;97044.34;4962576;28;20242;-59
2022/11/22 09:28:30;;;;;;;0.00;0.00;;;;;;;7.83;77.11;97051.50;4966299;28;20233;-60
2022/11/22 09:31:01;;;;;;;0.00;0.00;;;;;;;7.88;77.30;97052.78;4963947;28;20234;-59
2022/11/22 09:33:29;;;;;;;0.00;0.00;;;;;;;7.83;77.27;97056.72;4966320;28;20317;-61
2022/11/22 09:36:00;;;;;;;0.00;0.00;;;;;;;7.73;71.97;97061.31;4965123;28;20233;-59
2022/11/22 09:38:27;;;;;;;0.00;0.00;;;;;;;7.74;72.56;97057.75;4969083;28;20325;-60
2022/11/22 09:40:53;;;;;;;0.00;0.00;;;;;;;7.79;74.00;97059.84;4964010;28;20237;-59
2022/11/22 09:43:28;;;;;;;0.07;0.07;;;;;;;7.73;74.72;97056.13;4966677;28;20237;-59
2022/11/22 09:46:08;;;;;;;0.00;0.00;;;;;;;7.82;76.85;97067.28;4964170;28;20317;-60
2022/11/22 09:48:51;;;;;;;0.00;0.00;;;;;;;7.94;75.64;97067.69;4965349;28;20603;-61
2022/11/22 09:51:26;;;;;;;0.00;0.00;;;;;;;7.89;74.96;97065.63;4978709;28;20238;-60
2022/11/22 09:53:58;;;;;;;0.00;0.00;;;;;;;7.91;75.28;97068.03;4959617;28;20238;-60
2022/11/22 09:56:27;;;;;;;0.10;0.10;;;;;;;7.92;74.54;97048.88;4967022;28;20228;-60
2022/11/22 09:58:57;;;;;;;0.00;0.00;;;;;;;7.87;74.97;97043.38;4965443;28;20909;-60
2022/11/22 10:01:27;;;;;;;0.00;0.00;;;;;;;7.98;76.23;97046.38;4966247;28;20242;-61
2022/11/22 10:04:00;;;;;;;0.00;0.00;;;;;;;7.93;74.37;97050.47;4964352;28;20231;-60
2022/11/22 10:06:32;;;;;;;0.00;0.00;;;;;;;7.73;73.36;97055.31;4965411;28;20242;-60
2022/11/22 10:09:08;;;;;;;0.00;0.00;;;;;;;7.87;74.48;97046.81;4963699;28;20787;-61
2022/11/22 10:11:40;;;;;;;0.00;0.00;;;;;;;7.81;73.39;97044.88;4955030;28;20606;-61
2022/11/22 10:14:17;;;;;;;0.00;0.00;;;;;;;8.00;72.54;97054.00;4963889;28;20704;-61
2022/11/22 10:16:52;;;;;;;0.00;0.00;;;;;;;8.01;70.52;97047.00;4965467;28;20237;-60
2022/11/22 10:19:28;;;;;;;0.00;0.00;;;;;;;7.86;72.64;97045.19;4979581;28;20691;-61
2022/11/22 10:21:54;;;;;;;0.00;0.00;;;;;;;8.04;72.40;97044.88;4965165;28;20665;-60
2022/11/22 10:24:21;;;;;;;0.00;0.00;;;;;;;8.17;71.41;97046.09;4965177;28;20295;-61
2022/11/22 10:26:48;;;;;;;0.00;0.00;;;;;;;8.06;72.23;97045.53;4963415;28;20247;-60
2022/11/22 10:29:26;;;;;;;0.00;0.00;;;;;;;8.24;70.35;97042.59;4967130;28;20572;-60
2022/11/22 10:32:02;;;;;;;0.00;0.00;;;;;;;8.25;69.29;97043.44;4964412;28;20230;-61
2022/11/22 10:34:45;;;;;;;0.00;0.00;;;;;;;8.34;68.59;97054.56;4966416;28;20242;-61
2022/11/22 10:37:20;;;;;;;0.00;0.00;;;;;;;8.28;67.70;97043.88;4963437;28;20293;-61
2022/11/22 10:40:10;;;;;;;0.00;0.00;;;;;;;8.35;69.36;97041.41;4967641;28;21528;-61
2022/11/22 10:43:04;;;;;;;0.00;0.00;;;;;;;8.30;67.57;97038.53;4964808;28;20243;-61
2022/11/22 10:45:35;;;;;;;0.00;0.00;;;;;;;8.21;68.30;97047.38;4967013;28;20678;-61
2022/11/22 10:48:15;;;;;;;0.00;0.00;;;;;;;8.18;68.75;97038.13;4968078;28;20772;-61
2022/11/22 10:50:57;;;;;;;0.00;0.00;;;;;;;8.09;68.58;97044.34;4967558;28;20248;-61
2022/11/22 10:53:34;;;;;;;0.00;0.00;;;;;;;8.40;67.13;97046.06;4966442;28;20848;-61
2022/11/22 10:56:11;;;;;;;0.00;0.00;;;;;;;8.29;67.85;97047.31;4966529;28;20598;-61
2022/11/22 10:58:51;;;;;;;0.00;0.00;;;;;;;8.51;68.85;97050.88;4970177;28;20225;-61
2022/11/22 11:01:28;;;;;;;0.00;0.00;;;;;;;8.61;67.11;97048.00;4965954;28;20242;-61
2022/11/22 11:03:59;;;;;;;0.00;0.00;;;;;;;8.62;65.28;97036.63;4956375;28;20234;-61
2022/11/22 11:06:33;;;;;;;0.00;0.00;;;;;;;8.48;66.85;97038.19;4950349;28;20241;-60
2022/11/22 11:09:05;;;;;;;0.00;0.00;;;;;;;8.50;67.00;97036.25;4948858;28;20305;-60
2022/11/22 11:11:34;;;;;;;0.00;0.00;;;;;;;8.67;68.26;97036.09;4968541;28;20234;-61
2022/11/22 11:14:04;;;;;;;0.00;0.00;;;;;;;8.67;68.01;97033.50;4966356;28;20241;-61
2022/11/22 11:16:35;;;;;;;0.00;0.00;;;;;;;8.71;65.85;97045.97;4968946;28;20237;-61
2022/11/22 11:19:13;;;;;;;0.00;0.00;;;;;;;8.65;66.57;97038.88;4966994;28;20230;-60
2022/11/22 11:21:41;;;;;;;0.00;0.00;;;;;;;8.90;67.16;97038.63;4969066;28;20270;-61
2022/11/22 11:24:14;;;;;;;0.00;0.00;;;;;;;9.03;67.37;97034.59;4965288;28;20289;-60
2022/11/22 11:26:43;;;;;;;0.00;0.00;;;;;;;8.93;65.11;97027.06;4968069;28;20234;-61
2022/11/22 11:29:33;;;;;;;0.00;0.00;;;;;;;8.82;65.46;97025.69;4966529;28;20773;-61
2022/11/22 11:32:10;;;;;;;0.00;0.00;;;;;;;8.82;65.98;97030.91;4965762;28;20300;-61
2022/11/22 11:34:38;;;;;;;0.00;0.00;;;;;;;8.88;65.83;97027.59;4969139;28;20231;-60
2022/11/22 11:37:06;;;;;;;0.00;0.00;;;;;;;8.91;65.42;97032.44;4967084;28;20293;-61
2022/11/22 11:39:34;;;;;;;0.00;0.00;;;;;;;8.98;64.07;97029.94;4970763;28;20284;-61
2022/11/22 11:42:19;;;;;;;0.00;0.00;;;;;;;8.76;66.29;97040.25;4965314;28;20233;-60
2022/11/22 11:44:46;;;;;;;0.00;0.00;;;;;;;8.89;64.26;97020.59;4965652;28;20233;-60
2022/11/22 11:47:18;;;;;;;0.00;0.00;;;;;;;8.78;65.69;97027.03;4968892;28;20290;-60
2022/11/22 11:49:50;;;;;;;0.00;0.00;;;;;;;8.75;65.81;97019.59;4967607;28;20231;-60
2022/11/22 11:52:22;;;;;;;0.00;0.00;;;;;;;8.68;65.95;97019.50;4967891;28;20238;-61
2022/11/22 11:54:52;;;;;;;0.00;0.00;;;;;;;8.96;66.19;97014.47;4966550;28;20234;-61
2022/11/22 11:57:21;;;;;;;0.00;0.00;;;;;;;8.96;66.23;97011.09;4967911;28;20300;-61
2022/11/22 11:59:50;;;;;;;0.00;0.00;;;;;;;8.99;65.24;97011.53;4967009;28;20253;-61
2022/11/22 12:02:19;;;;;;;0.00;0.00;;;;;;;9.05;65.72;97003.97;4970734;28;20240;-60
2022/11/22 12:04:49;;;;;;;0.00;0.00;;;;;;;9.16;64.62;96999.09;4960693;28;20234;-61
2022/11/22 12:07:23;;;;;;;0.00;0.00;;;;;;;9.18;67.29;96996.34;4964235;28;20290;-61